Time;durP1;ratioP1;P1;durP2;ratioP2;P2;SDS_P1;SDS_P2;PMS_P1;PMS_P2;Temp;Humidity;BMP_temperature;BMP_pressure;BME280_temperature;BME280_humidity;BME280_pressure;Samples;Min_cycle;Max_cycle;Signal;HPM_P1;HPM_P2
2022/01/21 00:01:37;;;;;;;22.98;9.15;;;;;;;-2.12;71.30;98473.41;4917378;29;20043;-80
2022/01/21 00:04:05;;;;;;;18.20;8.77;;;;;;;-2.25;71.11;98454.44;4943609;29;20075;-78
2022/01/21 00:06:31;;;;;;;15.85;7.90;;;;;;;-2.51;71.39;98424.16;4938047;29;20095;-81
2022/01/21 00:08:58;;;;;;;21.17;9.02;;;;;;;-2.25;71.62;98457.00;4935034;29;20118;-80
2022/01/21 00:11:26;;;;;;;20.00;8.45;;;;;;;-2.60;71.54;98408.72;4930419;29;20050;-81
2022/01/21 00:13:52;;;;;;;18.02;8.43;;;;;;;-2.46;71.64;98432.78;4930090;29;20046;-79
2022/01/21 00:16:20;;;;;;;19.40;8.95;;;;;;;-2.31;71.43;98465.38;4931417;29;20043;-80
2022/01/21 00:19:00;;;;;;;22.48;9.05;;;;;;;-2.33;71.47;98461.94;4949907;29;20035;-80
2022/01/21 00:32:30;;;;;;;19.05;8.40;;;;;;;-2.35;71.60;98444.91;4933134;29;20032;-79
2022/01/21 00:34:56;;;;;;;17.20;8.25;;;;;;;-2.30;71.84;98451.81;4921025;29;20050;-79
2022/01/21 00:37:21;;;;;;;19.48;9.27;;;;;;;-2.43;72.01;98430.31;4947308;29;20644;-81
2022/01/21 00:39:51;;;;;;;19.13;7.72;;;;;;;-2.60;71.82;98403.59;4948302;29;20069;-78
2022/01/21 00:44:53;;;;;;;19.25;8.68;;;;;;;-2.33;72.26;98454.28;4968842;29;20039;-80
2022/01/21 00:47:20;;;;;;;21.75;10.45;;;;;;;-2.25;71.98;98464.63;4914731;29;20072;-81
2022/01/21 00:49:46;;;;;;;20.23;9.23;;;;;;;-2.28;71.49;98451.81;4931303;29;20145;-81
2022/01/21 00:52:12;;;;;;;21.67;9.43;;;;;;;-2.45;71.76;98428.56;4930614;29;20055;-79
2022/01/21 00:54:40;;;;;;;17.95;8.43;;;;;;;-2.40;71.81;98452.44;4919739;29;20047;-79
2022/01/21 00:57:05;;;;;;;17.95;8.52;;;;;;;-2.32;72.04;98455.16;4931036;29;20515;-79
2022/01/21 00:59:31;;;;;;;22.10;9.07;;;;;;;-2.51;71.84;98433.50;4929163;29;20053;-79
2022/01/21 01:01:58;;;;;;;19.88;9.50;;;;;;;-2.55;71.38;98447.00;4944335;29;20043;-81
2022/01/21 01:04:25;;;;;;;22.77;10.10;;;;;;;-2.46;71.87;98460.81;4941133;29;20070;-79
2022/01/21 01:06:51;;;;;;;23.77;10.07;;;;;;;-2.50;72.15;98466.66;4921349;29;20075;-79
2022/01/21 01:09:17;;;;;;;24.90;10.13;;;;;;;-2.47;71.85;98465.88;4919343;29;20078;-79
2022/01/21 01:12:05;;;;;;;20.33;9.10;;;;;;;-2.48;72.03;98454.81;4930107;29;20102;-81
2022/01/21 01:20:04;;;;;;;21.27;8.80;;;;;;;-2.37;71.77;98460.13;4930348;29;20059;-79
2022/01/21 01:22:47;;;;;;;22.73;9.20;;;;;;;-2.42;72.29;98449.84;4898662;29;20142;-78
2022/01/21 01:27:58;;;;;;;20.00;8.80;;;;;;;-2.52;72.08;98444.53;4930388;29;20042;-81
2022/01/21 01:30:26;;;;;;;22.65;9.73;;;;;;;-2.45;71.93;98454.88;4927691;29;20040;-80
2022/01/21 01:32:56;;;;;;;22.17;10.57;;;;;;;-2.36;71.62;98466.13;4912855;29;20147;-80
2022/01/21 01:35:23;;;;;;;21.55;9.88;;;;;;;-2.53;72.14;98414.78;4929731;29;20099;-79
2022/01/21 01:40:35;;;;;;;23.35;10.93;;;;;;;-2.37;71.76;98449.09;4914347;29;20047;-78
2022/01/21 01:51:17;;;;;;;21.73;10.25;;;;;;;-2.33;71.60;98440.69;4932286;29;20046;-80
2022/01/21 01:53:55;;;;;;;24.65;10.48;;;;;;;-2.28;71.96;98441.63;4929856;29;20032;-78
2022/01/21 01:56:27;;;;;;;23.58;10.38;;;;;;;-2.30;72.15;98446.72;4936175;29;20086;-78
2022/01/21 01:58:53;;;;;;;30.38;11.07;;;;;;;-2.46;71.62;98427.69;4943552;29;20059;-80
2022/01/21 02:01:18;;;;;;;28.08;12.27;;;;;;;-2.32;71.57;98442.41;4936111;29;20044;-80
2022/01/21 02:03:44;;;;;;;28.08;11.70;;;;;;;-2.40;71.42;98442.22;4943642;29;20275;-79
2022/01/21 02:06:10;;;;;;;26.65;12.52;;;;;;;-2.53;71.75;98422.44;4926173;29;20051;-81
2022/01/21 02:08:36;;;;;;;29.25;12.23;;;;;;;-2.46;71.73;98425.13;4909056;29;20533;-81
2022/01/21 02:11:02;;;;;;;25.33;10.80;;;;;;;-2.35;71.75;98440.66;4921287;29;20566;-79
2022/01/21 02:13:33;;;;;;;23.83;11.15;;;;;;;-2.28;71.43;98451.81;4928485;29;20047;-82
2022/01/21 02:16:01;;;;;;;30.20;13.70;;;;;;;-2.45;71.80;98414.13;4928031;29;20048;-79
2022/01/21 02:21:40;;;;;;;26.65;13.05;;;;;;;-2.28;72.06;98445.06;4930873;29;20428;-80
2022/01/21 02:24:14;;;;;;;25.60;11.82;;;;;;;-2.34;71.94;98433.88;4930283;29;20448;-83
2022/01/21 02:26:40;;;;;;;27.38;11.45;;;;;;;-2.27;71.96;98417.88;4909852;29;20503;-82
2022/01/21 02:29:08;;;;;;;25.63;11.50;;;;;;;-2.12;71.84;98438.59;4928355;29;20043;-78
2022/01/21 02:31:35;;;;;;;27.77;12.35;;;;;;;-2.13;71.85;98411.38;4931737;29;20063;-80
2022/01/21 02:34:02;;;;;;;38.13;14.95;;;;;;;-2.24;72.06;98394.16;4930786;29;20048;-80
2022/01/21 02:36:28;;;;;;;49.88;18.65;;;;;;;-2.36;71.02;98416.00;4945297;29;20047;-80
2022/01/21 02:38:55;;;;;;;36.80;14.68;;;;;;;-2.21;71.57;98435.84;4931598;29;20059;-81
2022/01/21 02:41:21;;;;;;;28.77;12.65;;;;;;;-2.36;71.52;98425.34;4943130;29;20047;-82
2022/01/21 02:43:49;;;;;;;29.27;11.73;;;;;;;-2.34;71.36;98436.44;4937543;29;20047;-78
2022/01/21 02:46:16;;;;;;;28.50;11.13;;;;;;;-2.41;71.38;98415.03;4917975;29;20044;-81
2022/01/21 02:48:43;;;;;;;29.35;14.30;;;;;;;-2.47;71.23;98412.38;4917274;29;20106;-79
2022/01/21 02:51:11;;;;;;;33.65;14.48;;;;;;;-2.46;71.33;98419.19;4939279;29;20044;-80
2022/01/21 02:54:24;;;;;;;29.05;12.48;;;;;;;-2.61;71.50;98384.91;4931617;29;20056;-80
2022/01/21 02:56:26;;;;;;;28.15;13.02;;;;;;;-2.51;71.41;98375.75;4910898;29;20177;-81
2022/01/21 02:58:51;;;;;;;30.45;13.23;;;;;;;-2.46;71.22;98381.81;4930792;29;20585;-80
2022/01/21 03:01:18;;;;;;;26.77;11.48;;;;;;;-2.49;71.70;98386.84;4925627;29;20112;-79
2022/01/21 03:03:46;;;;;;;24.83;12.00;;;;;;;-2.43;71.05;98399.72;4914466;29;20070;-78
2022/01/21 03:06:16;;;;;;;28.48;13.52;;;;;;;-2.65;71.37;98360.22;4943646;29;20059;-80
2022/01/21 03:08:44;;;;;;;33.13;13.30;;;;;;;-2.48;71.28;98387.72;4939138;29;20048;-79
2022/01/21 03:11:12;;;;;;;29.20;12.50;;;;;;;-2.66;71.30;98361.03;4923703;29;20066;-78
2022/01/21 03:13:42;;;;;;;26.55;12.27;;;;;;;-2.34;71.62;98413.50;4943531;29;20150;-80
2022/01/21 03:16:09;;;;;;;28.92;12.27;;;;;;;-2.44;71.62;98398.00;4946093;29;20056;-79
2022/01/21 03:18:35;;;;;;;29.35;13.45;;;;;;;-2.38;70.92;98404.06;4945500;29;20095;-80
2022/01/21 03:21:01;;;;;;;33.70;14.40;;;;;;;-2.49;71.54;98386.00;4926710;29;20119;-81
2022/01/21 03:23:29;;;;;;;32.25;13.35;;;;;;;-2.40;70.89;98415.91;4921082;29;20070;-81
2022/01/21 03:25:55;;;;;;;32.50;13.18;;;;;;;-2.48;71.11;98405.56;4938730;29;20036;-80
2022/01/21 03:28:38;;;;;;;26.20;12.45;;;;;;;-2.53;70.71;98415.63;4955488;29;20059;-80
2022/01/21 03:31:04;;;;;;;30.25;12.52;;;;;;;-2.75;70.77;98379.50;4950464;29;20036;-80
2022/01/21 03:33:30;;;;;;;23.77;11.60;;;;;;;-2.75;70.32;98397.34;4951170;29;20105;-79
2022/01/21 03:35:57;;;;;;;29.63;11.63;;;;;;;-2.83;71.35;98381.06;4934198;29;20060;-80
2022/01/21 03:38:26;;;;;;;29.45;12.93;;;;;;;-2.82;71.06;98389.53;4923199;29;20516;-79
2022/01/21 03:40:55;;;;;;;28.80;12.82;;;;;;;-2.59;71.84;98387.50;4936009;29;20040;-78
2022/01/21 03:43:22;;;;;;;32.97;14.65;;;;;;;-2.62;71.14;98405.25;4939954;29;20079;-79
2022/01/21 03:45:49;;;;;;;31.38;13.15;;;;;;;-2.76;71.01;98382.88;4950380;29;20028;-82
2022/01/21 03:48:17;;;;;;;27.45;11.80;;;;;;;-2.90;70.89;98358.81;4938465;29;20035;-81
2022/01/21 03:50:44;;;;;;;33.10;12.60;;;;;;;-2.79;71.58;98390.47;4937781;29;20134;-79
2022/01/21 03:53:11;;;;;;;32.20;12.13;;;;;;;-2.77;71.33;98382.84;4936616;29;20054;-78
2022/01/21 03:55:37;;;;;;;28.85;12.65;;;;;;;-2.77;70.40;98386.28;4932707;29;20082;-78
2022/01/21 03:58:05;;;;;;;31.70;12.45;;;;;;;-2.74;71.62;98400.75;4930801;29;20040;-81
2022/01/21 04:00:42;;;;;;;32.22;12.90;;;;;;;-2.89;70.67;98371.59;4928647;29;20504;-81
2022/01/21 04:03:08;;;;;;;28.95;12.88;;;;;;;-2.79;70.85;98409.97;4914311;29;20104;-79
2022/01/21 04:05:35;;;;;;;32.20;12.77;;;;;;;-3.12;71.30;98362.59;4932387;29;20048;-81
2022/01/21 04:08:04;;;;;;;30.42;12.60;;;;;;;-3.03;70.35;98386.56;4931993;29;20633;-81
2022/01/21 04:10:30;;;;;;;32.88;12.35;;;;;;;-3.15;71.23;98363.34;4904157;29;20099;-80
2022/01/21 04:12:56;;;;;;;31.23;13.40;;;;;;;-3.29;70.75;98363.03;4943417;29;20054;-80
2022/01/21 04:15:23;;;;;;;32.25;13.52;;;;;;;-3.40;70.80;98362.78;4942850;29;20036;-78
2022/01/21 04:17:49;;;;;;;29.77;11.85;;;;;;;-3.12;71.26;98424.50;4950195;29;20027;-82
2022/01/21 04:20:19;;;;;;;32.22;12.10;;;;;;;-3.05;71.67;98412.78;4918216;29;20146;-80
2022/01/21 04:22:46;;;;;;;31.30;12.68;;;;;;;-2.92;72.01;98417.34;4931315;29;20058;-80
2022/01/21 04:25:12;;;;;;;32.83;13.82;;;;;;;-2.96;70.97;98414.69;4936370;29;20063;-77
2022/01/21 04:27:41;;;;;;;29.63;12.20;;;;;;;-3.77;71.35;98295.78;4923200;29;20074;-79
2022/01/21 04:30:09;;;;;;;34.38;13.73;;;;;;;-3.17;71.12;98405.72;4920175;29;20043;-80
2022/01/21 04:32:35;;;;;;;32.20;12.07;;;;;;;-3.34;71.42;98367.16;4914577;29;20138;-80
2022/01/21 04:35:03;;;;;;;32.08;12.82;;;;;;;-3.58;71.73;98327.59;4937687;29;20626;-80
2022/01/21 04:37:31;;;;;;;30.30;13.35;;;;;;;-3.05;70.83;98411.13;4918599;29;20142;-80
2022/01/21 04:40:07;;;;;;;30.88;12.73;;;;;;;-3.10;71.56;98389.78;4927849;29;20043;-76
2022/01/21 04:48:05;;;;;;;32.60;13.27;;;;;;;-2.90;71.07;98405.53;4927656;29;20036;-78
2022/01/21 04:50:41;;;;;;;36.38;14.68;;;;;;;-2.89;70.44;98398.72;4927308;29;20039;-82
2022/01/21 04:53:15;;;;;;;31.67;13.27;;;;;;;-3.15;70.45;98382.88;4933865;29;20036;-79
2022/01/21 04:55:45;;;;;;;37.63;12.73;;;;;;;-3.07;71.19;98416.97;4931946;29;20127;-79
2022/01/21 04:58:11;;;;;;;35.33;14.05;;;;;;;-3.10;70.71;98425.41;4906473;29;20099;-81
2022/01/21 05:00:43;;;;;;;33.45;13.50;;;;;;;-3.09;71.33;98416.09;4928603;29;20327;-79
2022/01/21 05:03:11;;;;;;;33.05;12.55;;;;;;;-3.11;71.07;98405.88;4947321;29;20048;-78
2022/01/21 05:05:40;;;;;;;28.23;13.18;;;;;;;-3.10;71.02;98405.03;4898072;29;20455;-79
2022/01/21 05:08:09;;;;;;;30.80;12.85;;;;;;;-3.08;70.76;98421.22;4928147;29;20051;-80
2022/01/21 05:10:37;;;;;;;39.92;13.48;;;;;;;-2.94;71.21;98418.13;4929249;29;20051;-80
2022/01/21 05:13:04;;;;;;;33.42;12.98;;;;;;;-2.93;71.00;98412.22;4930694;29;20051;-80
2022/01/21 05:16:29;;;;;;;34.92;13.15;;;;;;;-2.73;71.20;98412.66;4944081;29;20495;-81
2022/01/21 05:18:16;;;;;;;34.10;14.65;;;;;;;-2.59;71.05;98410.44;4916965;29;20055;-80
2022/01/21 05:20:50;;;;;;;32.65;13.77;;;;;;;-2.78;70.72;98410.03;4948287;29;20090;-80
2022/01/21 05:23:28;;;;;;;35.17;14.38;;;;;;;-2.80;70.39;98419.31;4930925;29;20043;-79
2022/01/21 05:25:54;;;;;;;39.70;14.45;;;;;;;-2.90;70.84;98394.47;4921434;29;20044;-79
2022/01/21 05:28:20;;;;;;;40.05;15.07;;;;;;;-2.87;71.06;98399.63;4929474;29;20062;-80
2022/01/21 05:31:12;;;;;;;40.10;14.75;;;;;;;-2.93;71.17;98404.56;4914646;29;20139;-77
2022/01/21 05:33:45;;;;;;;35.22;14.93;;;;;;;-2.96;69.98;98409.59;4918697;29;20048;-79
2022/01/21 05:36:26;;;;;;;36.85;14.48;;;;;;;-3.08;70.81;98383.03;4930264;29;20538;-78
2022/01/21 05:39:15;;;;;;;39.05;16.02;;;;;;;-3.12;69.71;98378.69;4927614;29;20051;-78
2022/01/21 05:42:10;;;;;;;36.38;15.35;;;;;;;-3.24;69.71;98407.25;4913916;29;20051;-79
2022/01/21 05:47:50;;;;;;;38.95;14.95;;;;;;;-3.07;70.84;98402.56;4923686;29;20049;-79
2022/01/21 05:50:42;;;;;;;42.05;16.65;;;;;;;-3.29;71.12;98380.84;4886818;29;20100;-79
2022/01/21 05:54:10;;;;;;;35.92;14.98;;;;;;;-4.35;70.47;98185.94;4835361;29;20041;-79
2022/01/21 05:56:55;;;;;;;41.08;15.88;;;;;;;-3.19;70.10;98376.81;4944989;29;20052;-81
2022/01/21 05:59:58;;;;;;;38.90;15.80;;;;;;;-3.33;71.00;98329.03;4946952;29;20051;-81
2022/01/21 06:02:24;;;;;;;45.13;15.63;;;;;;;-3.44;70.99;98294.88;4929521;29;20050;-79
2022/01/21 06:04:53;;;;;;;42.40;16.17;;;;;;;-3.18;69.04;98358.19;4917719;29;20135;-80
2022/01/21 06:11:43;;;;;;;39.90;16.00;;;;;;;-4.45;69.51;98174.69;4856408;29;20051;-80
2022/01/21 06:14:33;;;;;;;39.55;15.57;;;;;;;-3.24;70.62;98366.53;4892758;29;20059;-81
2022/01/21 06:17:13;;;;;;;37.65;15.82;;;;;;;-3.25;70.05;98361.44;4929698;29;20043;-79
2022/01/21 06:19:43;;;;;;;37.17;15.82;;;;;;;-3.14;70.71;98352.34;4935869;29;20051;-79
2022/01/21 06:22:09;;;;;;;39.17;14.80;;;;;;;-3.79;70.36;98241.47;4918598;29;20518;-79
2022/01/21 06:24:39;;;;;;;41.40;15.98;;;;;;;-3.35;71.08;98296.75;4949117;29;20042;-80
2022/01/21 06:27:05;;;;;;;37.90;16.10;;;;;;;-3.23;70.55;98349.63;4952026;29;20043;-79
2022/01/21 06:29:31;;;;;;;33.97;14.73;;;;;;;-3.36;69.71;98331.50;4937491;29;20056;-78
2022/01/21 06:31:58;;;;;;;39.33;14.82;;;;;;;-3.35;70.18;98355.28;4950749;29;20410;-79
2022/01/21 06:34:33;;;;;;;38.25;16.52;;;;;;;-3.63;69.33;98330.00;4934075;29;20447;-78
2022/01/21 06:36:59;;;;;;;40.67;15.55;;;;;;;-3.97;69.94;98268.19;4945878;29;20031;-79
2022/01/21 06:39:25;;;;;;;38.80;15.15;;;;;;;-3.59;70.23;98322.47;4935024;29;21209;-78
2022/01/21 06:41:51;;;;;;;37.47;15.73;;;;;;;-3.40;69.67;98377.19;4932087;29;20094;-78
2022/01/21 06:44:17;;;;;;;32.67;13.07;;;;;;;-3.47;70.02;98355.84;4950787;29;20047;-81
2022/01/21 06:46:44;;;;;;;36.05;14.70;;;;;;;-3.52;69.23;98337.91;4920939;29;20050;-79
2022/01/21 06:49:10;;;;;;;38.67;15.75;;;;;;;-3.83;68.95;98305.78;4915540;29;20047;-79
2022/01/21 06:51:39;;;;;;;37.30;14.85;;;;;;;-3.39;69.73;98354.31;4949751;29;20047;-78
2022/01/21 06:54:10;;;;;;;33.72;14.80;;;;;;;-3.52;68.92;98344.69;4932080;29;20055;-81
2022/01/21 06:56:40;;;;;;;33.78;15.13;;;;;;;-3.48;69.08;98343.94;4932741;29;20406;-80
2022/01/21 06:59:06;;;;;;;30.15;14.02;;;;;;;-3.48;68.59;98349.03;4942025;29;20156;-80
2022/01/21 07:01:58;;;;;;;32.20;13.90;;;;;;;-3.49;69.63;98348.16;4950615;29;20168;-77
2022/01/21 07:04:24;;;;;;;;;;;;;;;-3.54;69.67;98342.13;4955663;29;20083;-80
2022/01/21 07:06:56;;;;;;;33.05;13.18;;;;;;;-3.44;69.82;98366.09;4934094;29;19930;-80
2022/01/21 07:09:50;;;;;;;31.77;13.23;;;;;;;-3.51;69.22;98348.94;4956267;29;20039;-81
2022/01/21 07:12:17;;;;;;;32.03;13.10;;;;;;;-3.51;69.78;98348.94;4934846;29;20071;-81
2022/01/21 07:14:46;;;;;;;29.42;13.38;;;;;;;-3.79;68.76;98315.22;4950145;29;20607;-79
2022/01/21 07:17:31;;;;;;;31.77;13.52;;;;;;;-3.95;68.72;98319.91;4952440;29;20043;-78
2022/01/21 07:19:57;;;;;;;35.15;13.20;;;;;;;-3.75;69.84;98347.53;4952233;29;20130;-81
2022/01/21 07:22:40;;;;;;;36.55;14.40;;;;;;;-3.83;70.02;98321.03;4935986;29;20143;-80
2022/01/21 07:25:23;;;;;;;32.92;13.45;;;;;;;-4.25;70.13;98252.25;4954432;29;20051;-79
2022/01/21 07:27:50;;;;;;;27.70;12.88;;;;;;;-4.04;69.81;98279.00;4930952;29;20415;-79
2022/01/21 07:30:18;;;;;;;28.10;12.38;;;;;;;-3.70;69.88;98304.41;4952086;29;20118;-78
2022/01/21 07:32:47;;;;;;;29.95;12.82;;;;;;;-3.57;69.83;98313.19;4919892;29;20058;-78
2022/01/21 07:35:16;;;;;;;32.05;13.90;;;;;;;-3.31;70.31;98351.97;4953939;29;20478;-78
2022/01/21 07:37:46;;;;;;;27.35;11.70;;;;;;;-3.56;70.40;98307.28;4952168;29;21013;-82
2022/01/21 07:40:54;;;;;;;32.47;12.65;;;;;;;-3.14;69.39;98359.13;4927592;29;20047;-80
2022/01/21 07:43:53;;;;;;;30.10;10.85;;;;;;;-3.07;69.99;98349.13;4932440;29;20059;-82
2022/01/21 07:46:26;;;;;;;26.80;11.95;;;;;;;-3.41;69.69;98279.66;4938080;29;20511;-79
2022/01/21 07:50:16;;;;;;;24.58;11.00;;;;;;;-3.15;69.99;98325.19;4949178;28;20048;-79
2022/01/21 07:53:00;;;;;;;33.25;13.55;;;;;;;-3.61;69.22;98252.91;4929652;29;20046;-82
2022/01/21 07:55:40;;;;;;;23.70;10.82;;;;;;;-3.41;69.59;98278.81;4937903;29;20091;-80
2022/01/21 07:58:14;;;;;;;24.25;11.32;;;;;;;-4.13;69.17;98147.50;4891960;29;20138;-79
2022/01/21 08:00:57;;;;;;;25.30;11.43;;;;;;;-3.04;69.65;98321.19;4933236;29;20462;-79
2022/01/21 08:03:46;;;;;;;24.33;10.93;;;;;;;-4.34;69.08;98121.59;4938544;29;20039;-82
2022/01/21 08:06:17;;;;;;;;;;;;;;;-3.12;69.02;98321.84;4942896;29;20212;-81
2022/01/21 08:08:46;;;;;;;25.70;10.88;;;;;;;-3.38;68.56;98310.25;4934895;28;19922;-82
2022/01/21 08:11:13;;;;;;;27.65;11.20;;;;;;;-3.97;69.18;98244.47;4933462;29;20043;-78
2022/01/21 08:13:42;;;;;;;23.45;10.35;;;;;;;-3.67;69.54;98251.06;4917677;29;20043;-82
2022/01/21 08:16:09;;;;;;;24.83;10.50;;;;;;;-3.39;69.15;98283.09;4937916;29;20043;-78
2022/01/21 08:18:37;;;;;;;22.27;10.45;;;;;;;-3.41;68.91;98284.72;4927050;29;20190;-79
2022/01/21 08:21:04;;;;;;;20.83;9.60;;;;;;;-3.53;69.24;98259.03;4936981;29;20070;-81
2022/01/21 08:23:29;;;;;;;24.75;9.95;;;;;;;-3.27;69.18;98274.03;4952529;29;20047;-79
2022/01/21 08:25:56;;;;;;;23.17;10.48;;;;;;;-3.90;68.91;98187.84;4938408;29;20036;-79
2022/01/21 08:28:22;;;;;;;25.00;10.30;;;;;;;-3.45;69.12;98267.72;4924838;29;20123;-81
2022/01/21 08:30:49;;;;;;;23.50;10.18;;;;;;;-3.42;69.22;98247.41;4918090;29;20052;-80
2022/01/21 08:33:18;;;;;;;28.27;11.23;;;;;;;-2.81;69.65;98338.66;4903147;29;20047;-82
2022/01/21 08:35:44;;;;;;;24.10;10.10;;;;;;;-2.87;68.97;98313.06;4887912;29;20051;-80
2022/01/21 08:38:15;;;;;;;17.38;8.32;;;;;;;-2.84;68.81;98323.31;4936390;29;20040;-82
2022/01/21 08:40:47;;;;;;;19.17;8.80;;;;;;;-3.15;69.28;98251.38;4936178;29;20070;-78
2022/01/21 08:43:42;;;;;;;20.58;9.40;;;;;;;-2.74;68.50;98311.63;4950934;29;20024;-80
2022/01/21 08:46:11;;;;;;;14.60;5.70;;;;;;;-2.89;68.77;98302.84;4929548;29;20122;-80
2022/01/21 08:48:42;;;;;;;16.25;7.20;;;;;;;-2.86;69.05;98279.13;4931830;29;20127;-77
2022/01/21 08:51:13;;;;;;;13.15;5.57;;;;;;;-3.23;68.96;98224.94;4903261;29;20503;-79
2022/01/21 08:53:45;;;;;;;10.13;3.22;;;;;;;-3.94;68.22;98100.50;4918916;29;20059;-78
2022/01/21 08:56:22;;;;;;;8.07;3.65;;;;;;;-3.73;66.89;98167.91;4931088;29;20471;-82
2022/01/21 08:58:51;;;;;;;6.40;3.72;;;;;;;-4.52;67.84;98086.50;4953972;29;20122;-82
2022/01/21 09:01:24;;;;;;;10.25;5.38;;;;;;;-3.30;68.94;98235.78;4929381;29;20063;-79
2022/01/21 09:04:05;;;;;;;18.13;8.20;;;;;;;-4.06;68.75;98071.44;4888574;29;20040;-83
2022/01/21 09:07:04;;;;;;;17.08;7.65;;;;;;;-2.55;69.30;98267.00;4928135;29;20052;-81
2022/01/21 09:09:32;;;;;;;14.55;6.43;;;;;;;-2.68;67.60;98263.38;4934438;29;20051;-79
2022/01/21 09:12:20;;;;;;;12.93;5.30;;;;;;;-3.84;68.95;98093.94;4919966;29;20142;-82
2022/01/21 09:15:25;;;;;;;7.13;3.47;;;;;;;-3.99;67.08;98074.13;4897791;29;20078;-82
2022/01/21 09:18:17;;;;;;;9.75;4.78;;;;;;;-3.99;67.43;98094.47;4923201;29;20047;-84
2022/01/21 09:20:44;;;;;;;16.30;6.20;;;;;;;-2.93;68.44;98246.72;4916115;29;20448;-84
2022/01/21 09:23:13;;;;;;;12.80;5.70;;;;;;;-3.05;67.88;98217.66;4932487;29;20047;-83
2022/01/21 09:25:39;;;;;;;8.30;3.70;;;;;;;-2.89;67.01;98240.88;4933581;29;20086;-80
2022/01/21 09:28:06;;;;;;;12.80;5.75;;;;;;;-3.12;67.29;98228.53;4931614;29;20102;-80
2022/01/21 09:30:36;;;;;;;18.85;7.18;;;;;;;-2.99;68.33;98236.44;4907381;29;20178;-81
2022/01/21 09:33:17;;;;;;;14.00;5.28;;;;;;;-2.67;68.89;98238.75;4903813;29;20063;-81
2022/01/21 09:35:47;;;;;;;13.35;6.28;;;;;;;-3.31;67.10;98127.22;4922589;29;20123;-81
2022/01/21 09:38:16;;;;;;;21.02;8.35;;;;;;;-2.61;67.64;98233.78;4935114;29;20518;-83
2022/01/21 09:40:47;;;;;;;13.85;5.70;;;;;;;-2.46;68.36;98244.25;4907296;29;20207;-80
2022/01/21 09:43:15;;;;;;;13.85;6.70;;;;;;;-2.50;67.96;98242.47;4934644;29;20146;-79
2022/01/21 09:45:55;;;;;;;31.92;10.77;;;;;;;-2.79;67.33;98221.53;4938762;29;20043;-80
2022/01/21 09:48:30;;;;;;;8.32;3.53;;;;;;;-3.06;67.01;98166.72;4909863;29;20039;-81
2022/01/21 09:51:00;;;;;;;12.75;5.15;;;;;;;-3.28;68.18;98163.75;4931804;29;20071;-81
2022/01/21 09:53:42;;;;;;;17.05;6.95;;;;;;;-2.73;68.28;98234.41;4930898;29;20050;-79
2022/01/21 09:56:09;;;;;;;17.00;6.45;;;;;;;-2.69;68.18;98199.66;4929347;29;20150;-81
2022/01/21 09:58:40;;;;;;;17.33;5.65;;;;;;;-2.41;68.08;98229.03;4917616;29;20051;-81
2022/01/21 10:01:27;;;;;;;22.13;8.63;;;;;;;-2.49;68.02;98225.50;4928337;29;20043;-81
2022/01/21 10:04:04;;;;;;;18.67;7.78;;;;;;;-3.68;67.66;98029.03;4930770;29;20156;-80
2022/01/21 10:06:47;;;;;;;17.42;7.82;;;;;;;-2.50;68.53;98224.63;4932366;29;20146;-82
2022/01/21 10:09:39;;;;;;;17.42;5.28;;;;;;;-2.42;66.61;98233.28;4936648;29;20039;-80
2022/01/21 10:12:10;;;;;;;11.43;5.57;;;;;;;-3.20;66.38;98161.38;4947565;29;20028;-81
2022/01/21 10:14:41;;;;;;;12.95;6.15;;;;;;;-3.22;66.24;98196.09;4934206;29;20118;-81
2022/01/21 10:17:09;;;;;;;11.65;5.80;;;;;;;-2.97;66.42;98220.34;4920974;29;20126;-80
2022/01/21 10:19:39;;;;;;;15.65;6.45;;;;;;;-3.10;66.94;98219.25;4942084;29;20044;-81
2022/01/21 10:22:19;;;;;;;16.05;7.35;;;;;;;-3.07;68.06;98214.22;4946741;29;20054;-79
2022/01/21 10:25:01;;;;;;;15.82;6.07;;;;;;;-2.90;68.44;98190.78;4932389;29;20044;-81
2022/01/21 10:27:40;;;;;;;11.10;4.88;;;;;;;-2.81;68.17;98192.63;4924445;29;20051;-77
2022/01/21 10:30:44;;;;;;;19.58;8.80;;;;;;;-3.29;67.51;98148.47;4917142;29;20138;-80
2022/01/21 10:33:23;;;;;;;14.80;5.93;;;;;;;-3.61;67.25;98092.69;4919535;29;20047;-79
2022/01/21 10:36:05;;;;;;;5.53;3.45;;;;;;;-3.94;66.47;98075.09;4910410;29;20046;-81
2022/01/21 10:38:42;;;;;;;15.57;6.53;;;;;;;-2.97;68.21;98232.22;4919891;29;20058;-81
2022/01/21 10:41:13;;;;;;;18.58;6.63;;;;;;;-3.30;67.25;98144.19;4923578;29;20088;-82
2022/01/21 10:44:12;;;;;;;15.40;5.30;;;;;;;-3.01;67.75;98161.72;4954523;29;20040;-82
2022/01/21 10:46:46;;;;;;;8.60;4.00;;;;;;;-3.08;66.75;98150.56;4912781;29;20063;-80
2022/01/21 10:49:14;;;;;;;16.60;7.30;;;;;;;-3.65;67.72;98066.34;4936052;29;20044;-78
2022/01/21 10:51:59;;;;;;;14.20;6.35;;;;;;;-3.01;67.06;98188.03;4911145;29;20047;-80
2022/01/21 10:54:29;;;;;;;14.90;6.50;;;;;;;-3.51;68.23;98102.25;4914240;29;20395;-79
2022/01/21 10:57:07;;;;;;;16.38;7.00;;;;;;;-2.80;67.88;98176.53;4934680;29;20040;-80
2022/01/21 11:03:42;;;;;;;18.80;6.63;;;;;;;-3.55;66.41;98085.19;4905163;29;20103;-83
2022/01/21 11:06:18;;;;;;;15.60;6.05;;;;;;;-3.10;67.97;98158.16;4923198;29;20066;-81
2022/01/21 11:12:38;;;;;;;6.30;3.17;;;;;;;-3.16;67.06;98096.13;4921788;29;20039;-81
2022/01/21 11:15:08;;;;;;;27.90;10.07;;;;;;;-3.01;68.10;98136.28;4934785;29;20050;-82
2022/01/21 11:18:02;;;;;;;14.63;5.22;;;;;;;-3.14;67.81;98110.56;4941760;29;20084;-78
2022/01/21 11:21:10;;;;;;;19.88;7.78;;;;;;;-2.95;67.88;98157.59;4919424;29;20182;-79
2022/01/21 11:23:48;;;;;;;17.23;4.35;;;;;;;-2.96;68.11;98160.09;4932831;29;20028;-81
2022/01/21 11:26:17;;;;;;;22.88;7.63;;;;;;;-3.03;67.42;98128.59;4915635;29;20059;-80
2022/01/21 11:28:50;;;;;;;26.98;9.05;;;;;;;-3.15;68.65;98093.59;4915449;29;20059;-81
2022/01/21 11:31:32;;;;;;;16.02;6.30;;;;;;;-2.94;68.48;98087.19;4932174;29;20072;-81
2022/01/21 11:37:55;;;;;;;23.35;8.65;;;;;;;-3.24;68.31;98009.47;4847738;29;20110;-84
2022/01/21 11:40:24;;;;;;;15.43;6.95;;;;;;;-3.81;67.50;97953.31;4906032;29;20055;-83
2022/01/21 11:42:50;;;;;;;20.05;8.43;;;;;;;-3.11;68.34;98069.09;4905113;29;20024;-79
2022/01/21 11:48:49;;;;;;;28.13;10.63;;;;;;;-3.10;68.75;98076.72;4952089;29;20075;-77
2022/01/21 11:51:03;;;;;;;;;;;;;;;;;;;;;
2022/01/21 11:53:56;;;;;;;22.63;8.55;;;;;;;-2.72;68.28;98160.56;4939032;29;20603;-78
2022/01/21 11:56:57;;;;;;;17.20;6.55;;;;;;;-3.21;68.17;98099.44;4919151;29;20044;-78
2022/01/21 12:00:17;;;;;;;24.75;7.93;;;;;;;-2.89;68.11;98174.69;4956254;29;20050;-79
2022/01/21 12:02:51;;;;;;;24.00;7.90;;;;;;;-2.98;68.39;98154.16;4957649;29;20091;-79
2022/01/21 12:05:25;;;;;;;24.77;8.93;;;;;;;-3.24;68.49;98135.00;4950180;29;20050;-81
2022/01/21 12:07:54;;;;;;;22.98;8.60;;;;;;;-2.97;68.82;98148.22;4927969;29;20044;-82
2022/01/21 12:10:21;;;;;;;35.88;12.95;;;;;;;-2.72;68.66;98160.56;4933790;29;20196;-80
2022/01/21 12:12:58;;;;;;;24.90;9.00;;;;;;;-2.83;67.46;98153.56;4940135;29;20472;-81
2022/01/21 12:15:35;;;;;;;26.42;10.52;;;;;;;-2.86;68.26;98162.00;4949957;29;20462;-81
2022/01/21 12:21:27;;;;;;;19.85;8.00;;;;;;;-3.31;67.87;98157.75;4930820;29;20087;-81
2022/01/21 12:23:54;;;;;;;25.95;7.68;;;;;;;-3.17;68.82;98148.69;4934706;29;20024;-82
2022/01/21 12:26:28;;;;;;;42.17;13.05;;;;;;;-3.40;69.33;98093.13;4922773;29;20047;-81
2022/01/21 12:28:54;;;;;;;30.60;9.35;;;;;;;-2.92;68.71;98144.06;4928792;29;20099;-78
2022/01/21 12:32:16;;;;;;;27.92;9.70;;;;;;;-4.33;68.29;97953.16;4935150;29;20060;-81
2022/01/21 12:35:11;;;;;;;23.73;9.82;;;;;;;-4.26;68.91;97978.69;4919620;29;20054;-80
2022/01/21 12:38:04;;;;;;;20.85;9.13;;;;;;;-3.71;67.01;98123.03;4944990;29;20043;-81
2022/01/21 12:41:04;;;;;;;24.98;8.23;;;;;;;-4.48;67.24;98007.88;4936165;29;20047;-77
2022/01/21 12:43:40;;;;;;;20.38;7.65;;;;;;;-4.45;67.52;98066.34;4918865;29;20052;-79
2022/01/21 12:46:26;;;;;;;17.80;7.93;;;;;;;-3.98;67.47;98139.38;4921442;29;20067;-82
2022/01/21 12:49:33;;;;;;;26.85;7.38;;;;;;;-4.01;69.12;98134.22;4931811;29;20051;-78
2022/01/21 12:52:31;;;;;;;9.32;4.10;;;;;;;-4.66;67.96;98043.00;4915600;29;20083;-79
2022/01/21 12:58:04;;;;;;;;;;;;;;;;;;;;;
2022/01/21 13:00:32;;;;;;;16.73;6.47;;;;;;;-4.33;68.58;98139.44;4916800;29;20075;-79
2022/01/21 13:03:21;;;;;;;;;;;;;;;;;;;;;
2022/01/21 13:06:19;;;;;;;28.90;10.10;;;;;;;-4.27;68.12;98136.19;4933266;29;20113;-81